KHHR

Jack Northrop Field/Hawthorne Municipal Airport

Hawthorne, California, USA
METAR KHHR 181553Z 00000KT 10SM CLR 13/M06 A3015 RMK AO2 SLP210 T01281056
Observed Flight Rules
Dec-18 @ 15:53 UTC (47 minutes ago) Visual Flight Rules
Wind Visibility Clouds
Calm 10 miles
  • Clear skies
Temperatures Readings
Current 13°C / 55°F
Dewpoint -6°C / 21°F
Humidity 26%
Altimeter 30.15" Hg
Pressure 1021 hPa
Elevation 18
METAR KHHR 181553Z 00000KT 10SM CLR 13/M06 A3015 RMK AO2 SLP210 T01281056
Observed Flight Rules
Dec-18 @ 15:53 UTC
(47 minutes ago)
VFR
Wind Visibility
Calm 10 miles
Clouds
  • Clear skies
Temperature Dewpoint
13°C / 55°F -6°C / 21°F
Humidity Altimeter Pressure
26% 30.15" Hg 1021 hPa